Time;durP1;ratioP1;P1;durP2;ratioP2;P2;SDS_P1;SDS_P2;PMS_P1;PMS_P2;Temp;Humidity;BMP_temperature;BMP_pressure;BME280_temperature;BME280_humidity;BME280_pressure;Samples;Min_cycle;Max_cycle;Signal;HPM_P1;HPM_P2
2023/03/27 00:02:15;;;;;;;1.55;0.35;;;;;;;;;;5006140;28;20034;-83
2023/03/27 00:04:41;;;;;;;2.08;0.40;;;;;;;;;;5020560;28;20041;-84
2023/03/27 00:07:08;;;;;;;1.83;0.22;;;;;;;;;;5022552;28;20093;-84
2023/03/27 00:09:33;;;;;;;1.50;0.40;;;;;;;;;;5022756;28;20044;-83
2023/03/27 00:12:00;;;;;;;1.35;0.30;;;;;;;;;;5023471;28;20034;-83
2023/03/27 00:14:25;;;;;;;0.98;0.30;;;;;;;;;;4997578;28;20041;-82
2023/03/27 00:16:51;;;;;;;1.48;0.32;;;;;;;;;;5023294;28;20065;-83
2023/03/27 00:19:17;;;;;;;1.20;0.32;;;;;;;;;;5023142;28;20026;-84
2023/03/27 00:21:43;;;;;;;1.70;0.30;;;;;;;;;;5023666;28;20037;-84
2023/03/27 00:24:10;;;;;;;0.63;0.30;;;;;;;;;;5023842;28;20044;-85
2023/03/27 00:26:36;;;;;;;1.65;0.68;;;;;;;;;;5023374;28;20052;-83
2023/03/27 00:29:03;;;;;;;1.48;0.30;;;;;;;;;;5005346;28;20494;-83
2023/03/27 00:31:31;;;;;;;0.38;0.22;;;;;;;;;;5023952;28;20038;-82
2023/03/27 00:33:56;;;;;;;0.43;0.30;;;;;;;;;;5006376;28;20040;-84
2023/03/27 00:36:22;;;;;;;2.20;0.40;;;;;;;;;;5005878;28;20061;-81
2023/03/27 00:38:51;;;;;;;2.53;0.40;;;;;;;;;;5024065;28;20038;-84
2023/03/27 00:41:18;;;;;;;1.25;0.30;;;;;;;;;;5024029;28;20080;-83
2023/03/27 00:43:44;;;;;;;0.47;0.20;;;;;;;;;;4994956;28;20049;-83
2023/03/27 00:46:37;;;;;;;2.53;0.30;;;;;;;;;;5005728;28;20061;-83
2023/03/27 00:49:07;;;;;;;0.82;0.40;;;;;;;;;;4987096;28;20496;-84
2023/03/27 00:51:35;;;;;;;1.35;0.43;;;;;;;;;;5024620;28;20026;-83
2023/03/27 00:54:02;;;;;;;0.43;0.30;;;;;;;;;;4998202;28;20053;-83
2023/03/27 00:56:27;;;;;;;2.05;0.50;;;;;;;;;;5006900;28;20065;-83
2023/03/27 00:58:59;;;;;;;0.20;0.20;;;;;;;;;;5006336;28;20033;-82
2023/03/27 01:01:26;;;;;;;0.90;0.30;;;;;;;;;;5007550;28;20088;-84
2023/03/27 01:03:53;;;;;;;0.75;0.30;;;;;;;;;;5010879;28;20078;-81
2023/03/27 01:06:20;;;;;;;0.30;0.22;;;;;;;;;;5027697;28;20052;-84
2023/03/27 01:08:46;;;;;;;0.90;0.30;;;;;;;;;;5010304;28;20034;-84
2023/03/27 01:11:43;;;;;;;1.95;0.47;;;;;;;;;;5009485;28;20033;-82
2023/03/27 01:14:28;;;;;;;1.70;0.40;;;;;;;;;;5025236;28;20489;-83
2023/03/27 01:17:00;;;;;;;1.23;0.35;;;;;;;;;;5024752;28;20037;-82
2023/03/27 01:19:37;;;;;;;0.60;0.30;;;;;;;;;;4999978;28;20030;-84
2023/03/27 01:22:24;;;;;;;2.80;0.32;;;;;;;;;;5009086;28;20030;-84
2023/03/27 01:25:09;;;;;;;1.42;0.40;;;;;;;;;;5008231;28;20061;-84
2023/03/27 01:28:01;;;;;;;1.35;0.38;;;;;;;;;;5001390;28;20037;-83
2023/03/27 01:30:27;;;;;;;3.05;0.30;;;;;;;;;;5000988;28;20566;-84
2023/03/27 01:32:55;;;;;;;2.15;0.40;;;;;;;;;;5003903;28;20054;-83
2023/03/27 01:35:30;;;;;;;0.93;0.30;;;;;;;;;;5011565;28;20041;-82
2023/03/27 01:38:08;;;;;;;1.17;0.43;;;;;;;;;;5026186;28;20041;-83
2023/03/27 01:40:49;;;;;;;1.45;0.47;;;;;;;;;;5011521;28;20072;-84
2023/03/27 01:43:23;;;;;;;1.70;0.50;;;;;;;;;;5012556;28;20030;-83
2023/03/27 01:45:48;;;;;;;2.05;0.45;;;;;;;;;;5025258;28;20056;-84
2023/03/27 01:48:30;;;;;;;0.55;0.25;;;;;;;;;;5011665;28;20065;-84
2023/03/27 01:51:21;;;;;;;1.15;0.40;;;;;;;;;;5012669;28;20052;-83
2023/03/27 01:53:51;;;;;;;0.60;0.40;;;;;;;;;;5008876;28;20042;-83
2023/03/27 01:56:36;;;;;;;1.48;0.50;;;;;;;;;;5029575;28;20093;-82
2023/03/27 01:59:08;;;;;;;0.65;0.28;;;;;;;;;;5008945;28;20034;-83
2023/03/27 02:01:37;;;;;;;1.52;0.50;;;;;;;;;;5028555;28;20093;-83
2023/03/27 02:04:05;;;;;;;1.05;0.40;;;;;;;;;;5027662;28;20419;-83
2023/03/27 02:06:33;;;;;;;2.20;0.45;;;;;;;;;;5028210;28;20068;-83
2023/03/27 02:09:08;;;;;;;2.53;0.77;;;;;;;;;;5012146;28;20069;-84
2023/03/27 02:11:42;;;;;;;0.52;0.40;;;;;;;;;;5011797;28;20033;-83
2023/03/27 02:14:14;;;;;;;2.47;0.50;;;;;;;;;;5008471;28;20037;-82
2023/03/27 02:16:45;;;;;;;1.08;0.25;;;;;;;;;;4994398;28;20038;-83
2023/03/27 02:19:19;;;;;;;2.38;0.70;;;;;;;;;;5006820;28;20036;-84
2023/03/27 02:21:48;;;;;;;2.08;0.38;;;;;;;;;;5010575;28;20395;-83
2023/03/27 02:24:18;;;;;;;1.15;0.30;;;;;;;;;;5025905;28;20034;-83
2023/03/27 02:26:44;;;;;;;1.38;0.47;;;;;;;;;;5009130;28;20038;-82
2023/03/27 02:29:26;;;;;;;1.13;0.38;;;;;;;;;;4992795;28;20101;-83
2023/03/27 02:32:10;;;;;;;0.95;0.40;;;;;;;;;;5022140;28;20402;-83
2023/03/27 02:34:39;;;;;;;0.95;0.43;;;;;;;;;;5024287;28;20050;-82
2023/03/27 02:37:16;;;;;;;2.03;0.30;;;;;;;;;;5023034;28;20065;-83
2023/03/27 02:40:17;;;;;;;3.03;0.60;;;;;;;;;;5021501;28;20041;-83
2023/03/27 02:42:59;;;;;;;1.98;0.60;;;;;;;;;;4999680;28;20080;-82
2023/03/27 02:46:03;;;;;;;2.35;0.50;;;;;;;;;;5020321;28;20494;-81
2023/03/27 02:48:34;;;;;;;3.05;0.50;;;;;;;;;;4945766;29;20055;-82
2023/03/27 02:51:16;;;;;;;0.70;0.40;;;;;;;;;;5015699;28;20076;-82
2023/03/27 02:53:47;;;;;;;1.38;0.30;;;;;;;;;;5008171;28;20063;-82
2023/03/27 02:56:15;;;;;;;1.15;0.30;;;;;;;;;;5005046;28;20038;-82
2023/03/27 02:58:51;;;;;;;0.90;0.30;;;;;;;;;;5008491;28;20057;-82
2023/03/27 03:01:31;;;;;;;1.85;0.47;;;;;;;;;;4996619;28;20046;-82
2023/03/27 03:04:23;;;;;;;1.38;0.30;;;;;;;;;;5021118;28;20081;-83
2023/03/27 03:07:10;;;;;;;2.90;0.50;;;;;;;;;;5020501;28;20038;-83
2023/03/27 03:09:37;;;;;;;0.45;0.40;;;;;;;;;;5022805;28;20034;-82
2023/03/27 03:12:03;;;;;;;1.38;0.40;;;;;;;;;;4994717;28;20030;-83
2023/03/27 03:14:42;;;;;;;1.05;0.40;;;;;;;;;;5005481;28;20491;-83
2023/03/27 03:17:10;;;;;;;3.13;0.40;;;;;;;;;;5006980;28;20064;-83
2023/03/27 03:19:36;;;;;;;3.92;0.45;;;;;;;;;;5008508;28;20034;-84
2023/03/27 03:22:02;;;;;;;1.27;0.40;;;;;;;;;;4979933;28;20037;-84
2023/03/27 03:24:31;;;;;;;1.60;0.50;;;;;;;;;;5006883;28;20033;-83
2023/03/27 03:26:58;;;;;;;0.50;0.30;;;;;;;;;;5022972;28;20037;-83
2023/03/27 03:29:28;;;;;;;0.63;0.30;;;;;;;;;;5024338;28;20406;-83
2023/03/27 03:32:05;;;;;;;0.75;0.30;;;;;;;;;;5004246;28;20513;-83
2023/03/27 03:34:34;;;;;;;1.65;0.30;;;;;;;;;;5004032;28;20077;-83
2023/03/27 03:36:59;;;;;;;0.55;0.20;;;;;;;;;;4997731;28;20038;-84
2023/03/27 03:39:29;;;;;;;1.40;0.20;;;;;;;;;;5019576;28;20066;-82
2023/03/27 03:41:55;;;;;;;0.73;0.20;;;;;;;;;;4996746;28;20029;-83
2023/03/27 03:44:20;;;;;;;0.20;0.20;;;;;;;;;;5002303;28;20045;-83
2023/03/27 03:46:46;;;;;;;0.35;0.20;;;;;;;;;;5003430;28;20038;-82
2023/03/27 03:49:19;;;;;;;0.30;0.20;;;;;;;;;;5001676;28;20064;-84
2023/03/27 03:51:45;;;;;;;1.45;0.30;;;;;;;;;;5003243;28;20030;-83
2023/03/27 03:54:10;;;;;;;0.73;0.50;;;;;;;;;;5021276;28;20026;-82
2023/03/27 03:56:40;;;;;;;1.08;0.22;;;;;;;;;;5004322;28;20533;-83
2023/03/27 03:59:10;;;;;;;1.00;0.40;;;;;;;;;;5022151;28;20052;-83
2023/03/27 04:01:39;;;;;;;1.15;0.40;;;;;;;;;;5006510;28;20026;-83
2023/03/27 04:04:08;;;;;;;1.13;0.57;;;;;;;;;;4995770;28;20040;-81
2023/03/27 04:06:57;;;;;;;0.20;0.20;;;;;;;;;;5019217;28;20037;-82
2023/03/27 04:09:24;;;;;;;0.28;0.20;;;;;;;;;;5004424;28;20034;-82
2023/03/27 04:12:02;;;;;;;0.20;0.20;;;;;;;;;;5004475;28;20042;-82
2023/03/27 04:14:54;;;;;;;0.30;0.20;;;;;;;;;;5001572;28;20406;-82
2023/03/27 04:17:39;;;;;;;0.20;0.20;;;;;;;;;;5019832;28;20128;-83
2023/03/27 04:20:09;;;;;;;0.43;0.30;;;;;;;;;;4987480;28;20040;-83
2023/03/27 04:22:36;;;;;;;0.20;0.20;;;;;;;;;;4992085;28;20030;-83
2023/03/27 04:25:07;;;;;;;0.13;0.13;;;;;;;;;;4995819;28;20037;-83
2023/03/27 04:27:34;;;;;;;0.47;0.20;;;;;;;;;;5003199;28;20038;-83
2023/03/27 04:30:12;;;;;;;0.30;0.20;;;;;;;;;;5001714;28;20041;-82
2023/03/27 04:32:58;;;;;;;0.20;0.20;;;;;;;;;;4966138;28;20041;-82
2023/03/27 04:35:35;;;;;;;0.10;0.10;;;;;;;;;;4993123;28;20053;-83
2023/03/27 04:38:12;;;;;;;0.65;0.20;;;;;;;;;;5022618;28;20645;-82
2023/03/27 04:40:47;;;;;;;0.28;0.20;;;;;;;;;;5007632;28;20101;-82
2023/03/27 04:43:17;;;;;;;0.32;0.20;;;;;;;;;;5007738;28;20036;-83
2023/03/27 04:45:46;;;;;;;0.20;0.20;;;;;;;;;;4990632;28;20030;-84
2023/03/27 04:48:13;;;;;;;0.20;0.20;;;;;;;;;;5008402;28;20041;-84
2023/03/27 04:50:40;;;;;;;0.20;0.20;;;;;;;;;;5008761;28;20029;-84
2023/03/27 04:53:09;;;;;;;0.20;0.20;;;;;;;;;;5004880;28;20052;-83
2023/03/27 04:55:39;;;;;;;0.10;0.10;;;;;;;;;;5024402;28;20034;-83
2023/03/27 04:58:06;;;;;;;0.17;0.17;;;;;;;;;;5008844;28;20025;-82
2023/03/27 05:00:35;;;;;;;0.77;0.20;;;;;;;;;;5009630;28;20437;-83
2023/03/27 05:03:27;;;;;;;0.20;0.20;;;;;;;;;;4987784;28;20038;-83
2023/03/27 05:06:04;;;;;;;0.20;0.20;;;;;;;;;;5008754;28;20037;-83
2023/03/27 05:08:30;;;;;;;0.10;0.10;;;;;;;;;;4998670;28;20042;-83
2023/03/27 05:10:57;;;;;;;0.82;0.28;;;;;;;;;;5009550;28;20033;-83
2023/03/27 05:13:23;;;;;;;0.20;0.20;;;;;;;;;;5003925;28;20060;-83
2023/03/27 05:15:48;;;;;;;0.38;0.17;;;;;;;;;;5009130;28;20056;-82
2023/03/27 05:18:17;;;;;;;0.20;0.20;;;;;;;;;;4985914;28;20034;-83
2023/03/27 05:20:48;;;;;;;0.20;0.20;;;;;;;;;;5004932;28;20034;-83
2023/03/27 05:23:15;;;;;;;0.20;0.20;;;;;;;;;;4991303;28;20040;-83
2023/03/27 05:25:41;;;;;;;0.20;0.20;;;;;;;;;;4984044;28;20047;-84
2023/03/27 05:28:11;;;;;;;0.35;0.30;;;;;;;;;;5031074;23;20081;-84
2023/03/27 05:30:36;;;;;;;0.10;0.10;;;;;;;;;;5005450;28;20030;-84
2023/03/27 05:33:17;;;;;;;0.20;0.20;;;;;;;;;;5008789;28;20562;-85
2023/03/27 05:35:46;;;;;;;0.20;0.20;;;;;;;;;;5033016;28;20061;-84
2023/03/27 05:38:13;;;;;;;0.17;0.10;;;;;;;;;;5005141;28;20521;-83
2023/03/27 05:40:45;;;;;;;0.38;0.38;;;;;;;;;;5009743;28;20402;-83
2023/03/27 05:43:14;;;;;;;0.55;0.30;;;;;;;;;;5006476;28;20034;-83
2023/03/27 05:45:40;;;;;;;0.13;0.13;;;;;;;;;;5016871;28;20553;-83
2023/03/27 05:48:06;;;;;;;0.35;0.13;;;;;;;;;;5006656;28;20104;-82
2023/03/27 05:50:38;;;;;;;1.08;0.20;;;;;;;;;;5015151;28;20529;-82
2023/03/27 05:53:11;;;;;;;0.20;0.20;;;;;;;;;;5003874;28;20093;-83
2023/03/27 05:55:49;;;;;;;0.20;0.20;;;;;;;;;;4992251;28;20044;-84
2023/03/27 05:58:14;;;;;;;0.08;0.08;;;;;;;;;;4994833;28;20035;-85
2023/03/27 06:00:41;;;;;;;0.15;0.10;;;;;;;;;;5014486;28;20410;-85
2023/03/27 06:03:10;;;;;;;0.20;0.20;;;;;;;;;;5006303;28;20446;-84
2023/03/27 06:05:51;;;;;;;0.10;0.10;;;;;;;;;;5011249;28;20180;-83
2023/03/27 06:08:18;;;;;;;0.20;0.20;;;;;;;;;;5023066;28;20088;-85
2023/03/27 06:10:44;;;;;;;0.38;0.30;;;;;;;;;;5006383;28;20085;-83
2023/03/27 06:13:22;;;;;;;0.28;0.22;;;;;;;;;;5021748;28;20040;-82
2023/03/27 06:15:59;;;;;;;0.17;0.17;;;;;;;;;;5014093;28;20134;-85
2023/03/27 06:18:45;;;;;;;0.32;0.32;;;;;;;;;;5001255;28;20121;-85
2023/03/27 06:21:13;;;;;;;0.20;0.20;;;;;;;;;;5003458;28;20045;-83
2023/03/27 06:23:39;;;;;;;0.20;0.20;;;;;;;;;;5029788;28;20034;-83
2023/03/27 06:26:10;;;;;;;0.28;0.28;;;;;;;;;;5022246;28;20041;-83
2023/03/27 06:28:38;;;;;;;0.40;0.30;;;;;;;;;;5008978;28;20036;-84
2023/03/27 06:31:04;;;;;;;0.17;0.17;;;;;;;;;;5000465;28;20082;-82
2023/03/27 06:33:52;;;;;;;0.40;0.40;;;;;;;;;;5007702;28;20435;-86
2023/03/27 06:36:33;;;;;;;0.88;0.30;;;;;;;;;;5005273;28;20431;-82
2023/03/27 06:39:05;;;;;;;0.20;0.20;;;;;;;;;;5005324;28;20030;-81
2023/03/27 06:41:31;;;;;;;0.30;0.30;;;;;;;;;;5001738;28;20096;-84
2023/03/27 06:44:31;;;;;;;1.23;0.38;;;;;;;;;;4995381;28;20537;-81
2023/03/27 06:47:05;;;;;;;0.55;0.45;;;;;;;;;;5031111;28;20022;-79
2023/03/27 06:49:46;;;;;;;0.40;0.40;;;;;;;;;;5008026;28;20146;-84
2023/03/27 06:52:16;;;;;;;0.52;0.40;;;;;;;;;;5014137;28;20402;-83
2023/03/27 06:54:43;;;;;;;0.40;0.40;;;;;;;;;;5017162;28;20457;-84
2023/03/27 06:57:08;;;;;;;0.60;0.50;;;;;;;;;;5006242;28;20022;-84
2023/03/27 06:59:52;;;;;;;0.60;0.60;;;;;;;;;;5011115;28;20092;-85
2023/03/27 07:02:22;;;;;;;0.52;0.45;;;;;;;;;;5022431;28;20030;-85
2023/03/27 07:04:53;;;;;;;1.20;0.32;;;;;;;;;;5004379;28;20050;-85
2023/03/27 07:07:21;;;;;;;0.90;0.28;;;;;;;;;;5017026;28;20092;-84
2023/03/27 07:09:48;;;;;;;1.10;0.50;;;;;;;;;;5013192;28;20037;-84
2023/03/27 07:12:16;;;;;;;0.75;0.40;;;;;;;;;;5008515;28;20553;-84
2023/03/27 07:14:44;;;;;;;0.50;0.50;;;;;;;;;;5023878;28;20038;-84
2023/03/27 07:17:10;;;;;;;2.75;0.77;;;;;;;;;;4986848;28;20030;-82
2023/03/27 07:19:47;;;;;;;1.65;0.93;;;;;;;;;;5006102;28;20034;-84
2023/03/27 07:22:14;;;;;;;2.05;0.90;;;;;;;;;;5013591;28;20034;-84
2023/03/27 07:24:40;;;;;;;1.70;1.00;;;;;;;;;;5003126;28;20040;-82
2023/03/27 07:27:07;;;;;;;1.33;0.85;;;;;;;;;;5016286;28;20130;-85
2023/03/27 07:29:34;;;;;;;1.33;0.82;;;;;;;;;;5016497;28;20414;-83
2023/03/27 07:32:01;;;;;;;2.85;0.95;;;;;;;;;;5008126;28;20109;-84
2023/03/27 07:34:34;;;;;;;3.53;0.90;;;;;;;;;;5015685;28;20093;-85
2023/03/27 07:37:22;;;;;;;2.03;1.00;;;;;;;;;;5016406;28;20041;-85
2023/03/27 07:40:12;;;;;;;2.35;0.80;;;;;;;;;;5016354;28;20045;-82
2023/03/27 07:42:43;;;;;;;2.53;0.93;;;;;;;;;;5010390;28;20041;-84
2023/03/27 07:45:16;;;;;;;3.35;0.90;;;;;;;;;;5013806;28;20034;-84
2023/03/27 07:47:42;;;;;;;2.35;1.02;;;;;;;;;;5021331;28;20037;-85
2023/03/27 07:50:10;;;;;;;2.88;1.15;;;;;;;;;;5019296;28;20058;-82
2023/03/27 07:52:39;;;;;;;3.05;1.50;;;;;;;;;;4996737;28;20121;-83
2023/03/27 07:55:11;;;;;;;1.83;0.90;;;;;;;;;;5005188;28;20410;-85
2023/03/27 07:57:46;;;;;;;2.40;0.73;;;;;;;;;;5028305;28;20068;-84
2023/03/27 08:00:16;;;;;;;1.83;1.00;;;;;;;;;;5015909;28;20029;-84
2023/03/27 08:02:45;;;;;;;3.65;1.20;;;;;;;;;;5002650;28;20101;-81
2023/03/27 08:05:12;;;;;;;2.00;0.93;;;;;;;;;;5007637;28;20097;-84
2023/03/27 08:07:46;;;;;;;2.78;0.90;;;;;;;;;;5014710;28;20490;-84
2023/03/27 08:10:21;;;;;;;8.13;2.60;;;;;;;;;;5003564;28;20034;-85
2023/03/27 08:12:55;;;;;;;4.80;1.60;;;;;;;;;;5013590;28;20030;-85
2023/03/27 08:15:21;;;;;;;3.58;1.30;;;;;;;;;;5014767;28;20080;-83
2023/03/27 08:17:52;;;;;;;2.88;1.45;;;;;;;;;;5023283;28;20033;-83
2023/03/27 08:20:22;;;;;;;7.60;3.65;;;;;;;;;;5006820;28;20046;-85
2023/03/27 08:22:52;;;;;;;4.25;1.75;;;;;;;;;;5013420;28;20026;-85
2023/03/27 08:25:33;;;;;;;4.38;2.85;;;;;;;;;;5013309;28;20101;-84
2023/03/27 08:28:03;;;;;;;2.83;1.50;;;;;;;;;;5003193;28;20031;-84
2023/03/27 08:30:29;;;;;;;3.17;1.70;;;;;;;;;;5015911;28;20092;-84
2023/03/27 08:32:58;;;;;;;2.40;1.80;;;;;;;;;;4999537;28;20402;-86
2023/03/27 08:35:24;;;;;;;2.85;1.40;;;;;;;;;;5023501;28;20041;-84
2023/03/27 08:37:51;;;;;;;2.00;1.60;;;;;;;;;;5013329;28;20050;-84
2023/03/27 08:40:49;;;;;;;1.48;1.10;;;;;;;;;;5010564;28;20038;-86
2023/03/27 08:43:41;;;;;;;3.58;2.47;;;;;;;;;;5006034;28;20398;-85
2023/03/27 08:46:18;;;;;;;7.13;3.45;;;;;;;;;;5013025;28;20038;-85
2023/03/27 08:48:49;;;;;;;5.95;2.50;;;;;;;;;;5002146;28;20057;-84
2023/03/27 08:51:21;;;;;;;3.63;2.20;;;;;;;;;;5013042;28;20030;-83
2023/03/27 08:53:55;;;;;;;4.47;2.10;;;;;;;;;;5028530;28;20034;-84
2023/03/27 08:56:25;;;;;;;2.75;1.70;;;;;;;;;;5007023;28;20514;-85
2023/03/27 08:58:53;;;;;;;3.45;1.52;;;;;;;;;;4995598;28;20045;-84
2023/03/27 09:01:50;;;;;;;5.65;2.50;;;;;;;;;;5011969;28;20038;-85
2023/03/27 09:04:35;;;;;;;4.70;2.30;;;;;;;;;;5019766;28;20066;-85
2023/03/27 09:07:18;;;;;;;3.40;2.30;;;;;;;;;;5010916;28;20029;-84
2023/03/27 09:10:10;;;;;;;4.20;2.28;;;;;;;;;;5020127;28;20033;-83
2023/03/27 09:12:56;;;;;;;2.00;1.10;;;;;;;;;;5008639;28;20041;-87
2023/03/27 09:15:27;;;;;;;1.30;1.10;;;;;;;;;;5011745;28;20045;-84
2023/03/27 09:18:01;;;;;;;1.10;1.00;;;;;;;;;;5001209;28;20045;-84
2023/03/27 09:20:36;;;;;;;2.85;1.67;;;;;;;;;;5014424;28;20065;-85
2023/03/27 09:23:19;;;;;;;3.03;1.60;;;;;;;;;;5011940;28;20041;-85
2023/03/27 09:26:18;;;;;;;2.00;1.27;;;;;;;;;;5016123;28;20033;-85
2023/03/27 09:29:11;;;;;;;1.08;0.90;;;;;;;;;;5008564;28;20029;-84
2023/03/27 09:31:45;;;;;;;0.88;0.70;;;;;;;;;;5007016;28;20161;-85
2023/03/27 09:34:16;;;;;;;1.10;0.80;;;;;;;;;;5015522;28;20148;-85
2023/03/27 09:36:44;;;;;;;1.38;0.88;;;;;;;;;;4995460;28;20041;-85
2023/03/27 09:39:16;;;;;;;1.00;0.90;;;;;;;;;;5008757;28;20502;-86
2023/03/27 09:41:45;;;;;;;1.17;0.80;;;;;;;;;;5024986;28;20030;-85
2023/03/27 09:44:24;;;;;;;1.80;0.95;;;;;;;;;;5004567;28;20102;-87
2023/03/27 09:47:14;;;;;;;2.97;2.00;;;;;;;;;;5005089;28;20146;-83
2023/03/27 09:49:47;;;;;;;3.70;2.45;;;;;;;;;;5000150;28;20033;-85
2023/03/27 09:52:42;;;;;;;5.63;2.53;;;;;;;;;;5016937;28;20041;-85
2023/03/27 09:55:33;;;;;;;2.95;1.80;;;;;;;;;;5015767;28;20038;-87
2023/03/27 09:58:08;;;;;;;3.45;1.80;;;;;;;;;;5017076;28;20030;-87
2023/03/27 10:00:35;;;;;;;2.08;1.20;;;;;;;;;;4988906;28;20041;-86
2023/03/27 10:03:10;;;;;;;3.83;1.60;;;;;;;;;;5028684;28;20093;-86
2023/03/27 10:05:38;;;;;;;2.95;1.77;;;;;;;;;;5004624;28;20466;-87
2023/03/27 10:08:23;;;;;;;1.85;1.20;;;;;;;;;;5015893;28;20487;-90
2023/03/27 10:11:15;;;;;;;2.63;1.27;;;;;;;;;;5015988;28;20053;-88
2023/03/27 10:13:57;;;;;;;3.08;1.50;;;;;;;;;;5013466;28;20034;-81
2023/03/27 10:16:26;;;;;;;1.85;1.25;;;;;;;;;;5019965;28;20037;-84
2023/03/27 10:19:02;;;;;;;2.63;1.75;;;;;;;;;;5012661;28;20034;-86
2023/03/27 10:21:40;;;;;;;2.92;2.00;;;;;;;;;;5011259;28;20034;-86
2023/03/27 10:24:18;;;;;;;3.60;2.03;;;;;;;;;;5009040;28;20034;-85
2023/03/27 10:27:15;;;;;;;3.25;1.90;;;;;;;;;;4982278;28;20498;-87
2023/03/27 10:30:21;;;;;;;4.15;1.90;;;;;;;;;;5014605;28;20077;-84
2023/03/27 10:32:48;;;;;;;4.03;1.83;;;;;;;;;;5005008;28;20399;-85
2023/03/27 10:35:33;;;;;;;;;;;;;;;;;;5002717;28;20026;-82
2023/03/27 10:38:16;;;;;;;3.35;2.03;;;;;;;;;;4988719;28;20374;-85
2023/03/27 10:40:47;;;;;;;3.25;2.20;;;;;;;;;;5015001;28;20108;-86
2023/03/27 10:43:36;;;;;;;3.42;2.35;;;;;;;;;;5011124;28;20030;-86
2023/03/27 10:46:10;;;;;;;3.40;1.70;;;;;;;;;;5017936;28;20034;-87
2023/03/27 10:48:55;;;;;;;5.28;3.08;;;;;;;;;;5007929;28;20044;-87
2023/03/27 10:51:50;;;;;;;5.03;2.78;;;;;;;;;;5012453;28;20430;-87
2023/03/27 10:54:35;;;;;;;6.20;3.00;;;;;;;;;;5003296;28;20034;-86
2023/03/27 10:57:01;;;;;;;5.00;3.17;;;;;;;;;;4986507;28;20034;-84
2023/03/27 10:59:45;;;;;;;4.05;2.80;;;;;;;;;;5022910;28;20037;-83
2023/03/27 11:02:38;;;;;;;4.63;2.72;;;;;;;;;;5012092;28;20030;-85
2023/03/27 11:05:15;;;;;;;3.67;2.17;;;;;;;;;;5002090;28;20042;-84
2023/03/27 11:08:07;;;;;;;5.00;2.55;;;;;;;;;;5002502;28;20031;-86
2023/03/27 11:10:41;;;;;;;4.22;2.40;;;;;;;;;;5011170;28;20057;-85
2023/03/27 11:13:29;;;;;;;4.20;1.98;;;;;;;;;;4997977;28;20038;-86
2023/03/27 11:16:25;;;;;;;3.92;2.35;;;;;;;;;;5012677;28;20065;-84
2023/03/27 11:19:08;;;;;;;3.33;2.28;;;;;;;;;;5015136;28;20563;-88
2023/03/27 11:22:03;;;;;;;4.28;2.17;;;;;;;;;;5006077;28;20030;-87
2023/03/27 11:25:04;;;;;;;3.13;2.10;;;;;;;;;;5012790;28;20387;-87
2023/03/27 11:27:35;;;;;;;7.60;2.35;;;;;;;;;;5003616;28;20073;-85
2023/03/27 11:30:23;;;;;;;5.78;2.30;;;;;;;;;;5012633;28;20048;-85
2023/03/27 11:33:23;;;;;;;4.25;2.55;;;;;;;;;;4988285;28;20034;-85
2023/03/27 11:36:33;;;;;;;5.97;2.72;;;;;;;;;;5014184;28;20034;-83
2023/03/27 11:39:41;;;;;;;4.63;2.80;;;;;;;;;;5014310;28;20133;-84
2023/03/27 11:42:20;;;;;;;5.78;2.80;;;;;;;;;;5010386;28;20034;-86
2023/03/27 11:44:47;;;;;;;6.70;3.03;;;;;;;;;;5010890;28;20034;-87
2023/03/27 11:47:35;;;;;;;7.43;3.17;;;;;;;;;;5015147;28;20052;-84
2023/03/27 11:50:28;;;;;;;7.47;3.05;;;;;;;;;;4989535;28;20457;-87
2023/03/27 11:52:56;;;;;;;11.57;3.00;;;;;;;;;;5040092;23;20060;-85
2023/03/27 11:55:55;;;;;;;8.55;3.72;;;;;;;;;;5033147;28;20052;-86
2023/03/27 11:58:39;;;;;;;5.88;3.17;;;;;;;;;;5031182;28;20037;-87
2023/03/27 12:01:40;;;;;;;10.88;3.78;;;;;;;;;;5051228;28;20497;-86
2023/03/27 12:04:44;;;;;;;6.75;3.60;;;;;;;;;;5046982;28;20041;-88
2023/03/27 12:08:03;;;;;;;6.00;3.17;;;;;;;;;;5033778;28;20033;-87
2023/03/27 12:10:34;;;;;;;7.88;3.70;;;;;;;;;;5026678;28;20124;-86
2023/03/27 12:13:21;;;;;;;6.90;3.45;;;;;;;;;;5032363;28;20242;-86
2023/03/27 12:16:13;;;;;;;5.72;2.88;;;;;;;;;;5024642;28;20077;-87
2023/03/27 12:19:03;;;;;;;6.65;3.13;;;;;;;;;;5018390;28;20068;-85
2023/03/27 12:21:40;;;;;;;8.45;3.30;;;;;;;;;;5032006;28;20040;-85
2023/03/27 12:24:26;;;;;;;13.00;4.25;;;;;;;;;;5038465;28;20045;-85
2023/03/27 12:27:43;;;;;;;14.55;6.55;;;;;;;;;;5008753;28;20120;-87
2023/03/27 12:31:06;;;;;;;6.78;3.35;;;;;;;;;;5034337;28;20045;-87
2023/03/27 12:33:40;;;;;;;9.55;3.75;;;;;;;;;;5026017;28;20034;-85
2023/03/27 12:36:11;;;;;;;9.95;3.83;;;;;;;;;;5043092;28;20552;-85
2023/03/27 12:38:40;;;;;;;7.82;4.10;;;;;;;;;;5024261;28;20040;-86
2023/03/27 12:41:24;;;;;;;9.43;4.20;;;;;;;;;;5048784;28;20029;-85
2023/03/27 12:44:03;;;;;;;8.32;3.70;;;;;;;;;;5032808;28;20067;-85
2023/03/27 12:46:38;;;;;;;9.93;4.28;;;;;;;;;;5035416;28;20043;-85
2023/03/27 12:49:04;;;;;;;8.43;3.63;;;;;;;;;;5034691;28;20420;-86
2023/03/27 12:51:42;;;;;;;8.35;3.50;;;;;;;;;;5044179;28;20029;-86
2023/03/27 12:54:27;;;;;;;9.05;4.18;;;;;;;;;;5022663;28;20112;-85
2023/03/27 12:57:12;;;;;;;12.18;4.97;;;;;;;;;;5033565;28;20628;-85
2023/03/27 12:59:47;;;;;;;10.52;3.58;;;;;;;;;;5036948;28;20030;-85
2023/03/27 13:02:34;;;;;;;9.40;3.55;;;;;;;;;;5027243;28;20026;-86
2023/03/27 13:05:18;;;;;;;9.63;3.40;;;;;;;;;;5037653;28;20041;-87
2023/03/27 13:07:48;;;;;;;;;;;;;;;;;;5028746;28;20034;-85
2023/03/27 13:10:34;;;;;;;10.38;4.10;;;;;;;;;;5033679;28;19913;-87
2023/03/27 13:13:14;;;;;;;12.30;4.57;;;;;;;;;;5030420;28;20613;-87
2023/03/27 13:15:43;;;;;;;12.40;4.22;;;;;;;;;;5037557;28;20044;-88
2023/03/27 13:18:31;;;;;;;12.98;4.50;;;;;;;;;;5042620;28;20062;-86
2023/03/27 13:21:29;;;;;;;7.65;4.05;;;;;;;;;;5030591;28;20056;-88
2023/03/27 13:24:14;;;;;;;13.13;3.67;;;;;;;;;;5009676;28;20071;-86
2023/03/27 13:27:05;;;;;;;12.20;3.10;;;;;;;;;;5034452;28;20033;-86
2023/03/27 13:29:34;;;;;;;;;;;;;;;;;;5033559;28;20034;-83
2023/03/27 13:32:32;;;;;;;8.23;2.47;;;;;;;;;;5037281;28;19924;-86
2023/03/27 13:35:21;;;;;;;4.90;2.25;;;;;;;;;;5037175;28;20029;-86
2023/03/27 13:37:49;;;;;;;5.43;2.20;;;;;;;;;;5047771;28;20029;-86
2023/03/27 13:40:32;;;;;;;7.00;2.78;;;;;;;;;;5034844;28;20037;-86
2023/03/27 13:43:20;;;;;;;8.80;2.75;;;;;;;;;;5042879;28;20708;-85
2023/03/27 13:45:51;;;;;;;8.30;2.60;;;;;;;;;;5038104;28;20039;-87
2023/03/27 13:49:03;;;;;;;4.80;2.38;;;;;;;;;;5039111;28;20098;-86
2023/03/27 13:51:41;;;;;;;6.47;2.55;;;;;;;;;;5035419;28;20033;-85
2023/03/27 13:54:34;;;;;;;4.90;2.05;;;;;;;;;;5014163;28;20040;-85
2023/03/27 13:57:40;;;;;;;5.57;2.15;;;;;;;;;;5019494;28;20055;-85
2023/03/27 14:00:25;;;;;;;4.20;2.03;;;;;;;;;;5026866;28;20037;-85
2023/03/27 14:03:03;;;;;;;4.25;1.75;;;;;;;;;;5033289;28;20038;-86
2023/03/27 14:06:01;;;;;;;4.53;1.80;;;;;;;;;;5031835;28;20041;-86
2023/03/27 14:08:30;;;;;;;6.82;1.95;;;;;;;;;;5041050;28;20095;-84
2023/03/27 14:11:39;;;;;;;3.53;1.80;;;;;;;;;;5028979;28;20442;-86
2023/03/27 14:14:34;;;;;;;5.10;1.73;;;;;;;;;;5030800;28;20041;-86
2023/03/27 14:17:07;;;;;;;5.03;1.90;;;;;;;;;;5033416;28;20038;-85
2023/03/27 14:20:10;;;;;;;3.28;1.20;;;;;;;;;;5037332;28;20120;-86
2023/03/27 14:22:42;;;;;;;4.75;1.38;;;;;;;;;;4988498;28;20091;-85
2023/03/27 14:25:13;;;;;;;5.40;1.55;;;;;;;;;;5036760;28;20037;-87
2023/03/27 14:27:49;;;;;;;3.55;1.40;;;;;;;;;;5026254;28;20513;-86
2023/03/27 14:30:19;;;;;;;4.45;1.92;;;;;;;;;;5037151;28;20128;-87
2023/03/27 14:32:51;;;;;;;3.10;1.70;;;;;;;;;;5041284;28;20042;-85
2023/03/27 14:35:40;;;;;;;3.92;2.22;;;;;;;;;;5036076;28;20029;-86
2023/03/27 14:38:25;;;;;;;6.53;2.47;;;;;;;;;;5026926;28;20034;-87
2023/03/27 14:40:58;;;;;;;11.30;4.07;;;;;;;;;;5025521;28;20045;-85
2023/03/27 14:43:49;;;;;;;16.73;5.70;;;;;;;;;;5034049;28;20413;-86
2023/03/27 14:46:15;;;;;;;5.65;2.67;;;;;;;;;;5036245;28;20118;-86
2023/03/27 14:48:44;;;;;;;4.70;1.90;;;;;;;;;;5037113;28;20026;-86
2023/03/27 14:51:18;;;;;;;6.75;2.25;;;;;;;;;;5032722;28;20033;-86
2023/03/27 14:53:48;;;;;;;5.22;2.13;;;;;;;;;;5028652;28;20101;-87
2023/03/27 14:56:29;;;;;;;4.13;2.00;;;;;;;;;;5033532;28;20029;-85
2023/03/27 14:59:02;;;;;;;2.42;1.50;;;;;;;;;;5044841;28;20037;-86
2023/03/27 15:01:40;;;;;;;3.38;1.52;;;;;;;;;;5026422;28;20034;-87
2023/03/27 15:04:10;;;;;;;8.40;2.20;;;;;;;;;;5026325;28;20041;-87
2023/03/27 15:06:40;;;;;;;3.72;2.03;;;;;;;;;;5040212;28;20038;-87
2023/03/27 15:09:15;;;;;;;5.97;2.30;;;;;;;;;;5019631;28;20125;-86
2023/03/27 15:12:00;;;;;;;3.20;1.70;;;;;;;;;;5026305;28;20049;-85
2023/03/27 15:14:31;;;;;;;4.45;1.63;;;;;;;;;;5024000;28;20034;-85
2023/03/27 15:17:01;;;;;;;4.10;1.98;;;;;;;;;;5036480;28;20040;-86
2023/03/27 15:19:42;;;;;;;6.65;1.65;;;;;;;;;;5028440;28;20057;-86
2023/03/27 15:22:22;;;;;;;5.07;2.15;;;;;;;;;;5015948;28;20558;-84
2023/03/27 15:24:52;;;;;;;5.93;2.33;;;;;;;;;;5036734;28;20497;-85
2023/03/27 15:27:30;;;;;;;4.90;2.45;;;;;;;;;;5025085;28;20038;-84
2023/03/27 15:30:18;;;;;;;4.20;2.13;;;;;;;;;;5047682;28;20037;-84
2023/03/27 15:32:49;;;;;;;5.55;2.60;;;;;;;;;;5045341;28;20030;-84
2023/03/27 15:35:22;;;;;;;6.32;2.38;;;;;;;;;;5046768;28;20029;-84
2023/03/27 15:37:49;;;;;;;5.68;2.22;;;;;;;;;;5046736;28;20045;-84
2023/03/27 15:40:36;;;;;;;6.47;2.00;;;;;;;;;;5047083;28;20461;-84